Terminal Aerodrome Forecast
Issued by NWS Twin Cities, MN

Home | Current Version | Previous Version | Text Only | Print | Product List | Glossary Off
Versions: 1 2 3 4 5 6 7 8 9 10 11 12 13 14 15 16 17 18 19 20 21 22 23 24 25 26 27 28

000
FTUS43 KMPX 290059 AAA
TAFMSP
TAF AMD
KMSP 290059Z 2901/3006 02004KT P6SM VCSH SCT017 OVC030
      TEMPO 2901/2905 -SHRA BKN017 BKN040
     FM290600 31005KT 5SM BR BKN008 OVC025
     FM291600 28010G18KT P6SM SCT035 BKN060=

USA.gov is the U.S. government's official web portal to all federal, state and local government web resources and services.